createdAt,value
2019-02-19T00:00:39.450Z,203.37
2019-02-19T00:03:11.811Z,245.67
2019-02-19T00:05:43.491Z,215.77
2019-02-19T00:08:15.029Z,199.97
2019-02-19T00:10:46.566Z,187.13
2019-02-19T00:13:18.123Z,191.17
2019-02-19T00:15:49.777Z,224.00
2019-02-19T00:18:21.392Z,217.57
2019-02-19T00:20:52.995Z,203.00
2019-02-19T00:23:24.588Z,193.93
2019-02-19T00:25:56.203Z,211.47
2019-02-19T00:28:27.814Z,188.53
2019-02-19T00:30:59.558Z,178.00
2019-02-19T00:33:31.160Z,190.83
2019-02-19T00:36:02.696Z,164.63
2019-02-19T00:38:34.211Z,161.53
2019-02-19T00:41:05.810Z,153.70
2019-02-19T00:43:37.442Z,174.47
2019-02-19T00:46:09.041Z,172.73
2019-02-19T00:48:40.599Z,181.90
2019-02-19T00:51:12.119Z,160.10
2019-02-19T00:53:43.719Z,149.60
2019-02-19T00:56:15.300Z,172.17
2019-02-19T00:58:46.852Z,161.07
2019-02-19T01:01:18.456Z,166.07
2019-02-19T01:03:50.126Z,147.80
2019-02-19T01:06:21.727Z,150.30
2019-02-19T01:08:53.304Z,155.63
2019-02-19T01:11:24.839Z,151.30
2019-02-19T01:13:56.358Z,153.07
2019-02-19T01:16:27.971Z,148.87
2019-02-19T01:18:59.587Z,149.63
2019-02-19T01:21:31.338Z,166.03
2019-02-19T01:24:02.889Z,154.73
2019-02-19T01:26:34.437Z,143.17
2019-02-19T01:29:06.046Z,178.30
2019-02-19T01:31:38.047Z,145.03
2019-02-19T01:34:09.569Z,166.23
2019-02-19T01:36:41.100Z,149.53
2019-02-19T01:39:12.640Z,152.13
2019-02-19T01:41:44.233Z,137.60
2019-02-19T01:44:15.851Z,160.37
2019-02-19T01:46:47.405Z,151.87
2019-02-19T01:49:19.012Z,160.60
2019-02-19T01:51:50.620Z,151.67
2019-02-19T01:54:22.169Z,164.97
2019-02-19T01:56:53.736Z,169.00
2019-02-19T01:59:25.404Z,156.67
2019-02-19T02:01:57.485Z,154.70
2019-02-19T02:04:29.151Z,156.17
2019-02-19T02:07:00.686Z,158.87
2019-02-19T02:09:32.192Z,159.93
2019-02-19T02:12:03.805Z,167.10
2019-02-19T02:14:35.348Z,164.40
2019-02-19T02:17:06.954Z,160.90
2019-02-19T02:19:38.605Z,166.90
2019-02-19T02:22:10.187Z,190.63
2019-02-19T02:24:41.785Z,171.10
2019-02-19T02:27:13.339Z,164.33
2019-02-19T02:29:44.882Z,152.37
2019-02-19T02:32:17.029Z,162.27
2019-02-19T02:34:48.638Z,149.90
2019-02-19T02:37:20.298Z,157.67
2019-02-19T02:39:51.920Z,144.13
2019-02-19T02:42:23.452Z,138.60
2019-02-19T02:44:55.004Z,136.33
2019-02-19T02:47:26.554Z,148.90
2019-02-19T02:49:58.100Z,141.00
2019-02-19T02:52:29.611Z,141.20
2019-02-19T02:55:01.173Z,147.20
2019-02-19T02:57:32.773Z,123.13
2019-02-19T03:00:05.915Z,152.60
2019-02-19T03:02:38.501Z,147.20
2019-02-19T03:05:10.184Z,142.63
2019-02-19T03:07:43.389Z,160.00
2019-02-19T03:10:14.969Z,140.83
2019-02-19T03:12:46.509Z,152.83
2019-02-19T03:15:18.497Z,143.33
2019-02-19T03:17:50.504Z,145.07
2019-02-19T03:20:22.099Z,128.57
2019-02-19T03:22:54.691Z,154.40
2019-02-19T03:25:26.218Z,142.20
2019-02-19T03:27:57.834Z,141.43
2019-02-19T03:30:29.519Z,132.30
2019-02-19T03:33:01.513Z,141.00
2019-02-19T03:35:33.092Z,147.77
2019-02-19T03:38:04.594Z,143.57
2019-02-19T03:40:36.198Z,144.40
2019-02-19T03:43:07.813Z,141.80
2019-02-19T03:45:39.406Z,138.73
2019-02-19T03:48:11.134Z,142.23
2019-02-19T03:50:42.741Z,130.80
2019-02-19T03:53:15.436Z,138.33
2019-02-19T03:55:46.970Z,123.70
2019-02-19T03:58:18.582Z,138.30
2019-02-19T04:00:50.674Z,136.30
2019-02-19T04:03:23.274Z,144.83
2019-02-19T04:05:54.821Z,150.27
2019-02-19T04:08:26.495Z,147.30
2019-02-19T04:10:58.078Z,132.93
2019-02-19T04:13:29.687Z,131.23
2019-02-19T04:16:01.227Z,131.47
2019-02-19T04:18:33.260Z,137.67
2019-02-19T04:21:04.789Z,137.63
2019-02-19T04:23:36.425Z,140.97
2019-02-19T04:26:08.062Z,138.47
2019-02-19T04:28:39.658Z,121.47
2019-02-19T04:31:11.189Z,125.80
2019-02-19T04:33:43.328Z,125.77
2019-02-19T04:36:14.985Z,131.33
2019-02-19T04:38:46.561Z,147.57
2019-02-19T04:41:18.239Z,141.13
2019-02-19T04:43:49.902Z,142.83
2019-02-19T04:46:31.259Z,140.03
2019-02-19T04:48:57.375Z,158.30
2019-02-19T04:51:29.055Z,171.10
2019-02-19T04:54:00.592Z,153.53
2019-02-19T04:56:32.187Z,133.97
2019-02-19T04:59:03.744Z,134.80
2019-02-19T05:01:35.359Z,152.57
2019-02-19T05:04:07.475Z,149.87
2019-02-19T05:06:39.074Z,123.33
2019-02-19T05:09:10.681Z,152.57
2019-02-19T05:11:42.287Z,163.13
2019-02-19T05:14:13.909Z,144.47
2019-02-19T05:16:45.408Z,129.20
2019-02-19T05:19:17.751Z,122.30
2019-02-19T05:21:49.284Z,97.77
2019-02-19T05:24:20.868Z,110.83
2019-02-19T05:26:52.465Z,124.43
2019-02-19T05:29:24.097Z,114.53
2019-02-19T05:31:55.621Z,115.97
2019-02-19T05:34:27.375Z,113.27
2019-02-19T05:36:58.955Z,114.23
2019-02-19T05:39:30.482Z,102.13
2019-02-19T05:42:02.015Z,110.97
2019-02-19T05:44:33.685Z,105.17
2019-02-19T05:47:05.770Z,96.23
2019-02-19T05:49:37.353Z,99.57
2019-02-19T05:52:09.142Z,89.10
2019-02-19T05:54:40.668Z,92.97
2019-02-19T05:57:12.345Z,107.53
2019-02-19T05:59:43.946Z,93.80
2019-02-19T06:02:15.477Z,90.20
2019-02-19T06:04:47.073Z,93.80
2019-02-19T06:07:18.632Z,89.23
2019-02-19T06:09:50.183Z,94.37
2019-02-19T06:12:21.707Z,86.17
2019-02-19T06:14:53.295Z,80.27
2019-02-19T06:17:24.958Z,96.53
2019-02-19T06:19:56.512Z,88.77
2019-02-19T06:22:28.021Z,79.10
2019-02-19T06:25:00.624Z,71.70
2019-02-19T06:27:33.752Z,67.87
2019-02-19T06:30:12.181Z,62.83
2019-02-19T06:32:43.719Z,72.30
2019-02-19T06:35:15.335Z,56.50
2019-02-19T06:37:47.372Z,57.03
2019-02-19T06:40:29.982Z,64.70
2019-02-19T06:43:01.643Z,64.37
2019-02-19T06:45:33.263Z,64.77
2019-02-19T06:48:04.794Z,64.07
2019-02-19T06:50:36.376Z,57.33
2019-02-19T06:53:07.965Z,54.47
2019-02-19T06:55:39.562Z,56.23
2019-02-19T06:58:11.306Z,46.90
2019-02-19T07:00:42.836Z,53.50
2019-02-19T07:03:16.054Z,59.53
2019-02-19T07:05:48.099Z,52.07
2019-02-19T07:08:19.616Z,54.23
2019-02-19T07:10:51.163Z,50.43
2019-02-19T07:13:23.122Z,53.37
2019-02-19T07:15:54.799Z,49.53
2019-02-19T07:18:26.372Z,63.00
2019-02-19T07:20:58.692Z,46.13
2019-02-19T07:23:30.375Z,50.00
2019-02-19T07:26:01.876Z,50.77
2019-02-19T07:28:33.539Z,53.57
2019-02-19T07:31:05.129Z,68.70
2019-02-19T07:33:36.655Z,61.87
2019-02-19T07:36:08.291Z,51.77
2019-02-19T07:38:39.799Z,54.13
2019-02-19T07:41:11.389Z,58.97
2019-02-19T07:43:42.992Z,52.00
2019-02-19T07:46:14.594Z,52.87
2019-02-19T07:48:46.212Z,58.97
2019-02-19T07:51:18.359Z,42.97
2019-02-19T07:53:49.973Z,51.37
2019-02-19T07:56:21.650Z,52.70
2019-02-19T07:58:53.257Z,50.53
2019-02-19T08:01:24.803Z,58.33
2019-02-19T08:03:56.468Z,48.37
2019-02-19T08:06:28.425Z,43.87
2019-02-19T08:09:00.031Z,58.17
2019-02-19T08:11:31.656Z,50.07
2019-02-19T08:14:03.331Z,51.73
2019-02-19T08:16:35.930Z,53.73
2019-02-19T08:19:07.462Z,50.60
2019-02-19T08:21:39.818Z,57.07
2019-02-19T08:24:11.443Z,50.20
2019-02-19T08:26:43.133Z,49.70
2019-02-19T08:29:14.659Z,52.03
2019-02-19T08:31:46.205Z,43.57
2019-02-19T08:34:17.883Z,57.17
2019-02-19T08:36:50.177Z,50.93
2019-02-19T08:39:21.714Z,47.43
2019-02-19T08:41:53.363Z,54.60
2019-02-19T08:44:24.979Z,47.47
2019-02-19T08:46:56.641Z,46.80
2019-02-19T08:49:28.188Z,47.93
2019-02-19T08:51:59.946Z,43.30
2019-02-19T08:54:31.655Z,52.70
2019-02-19T08:57:03.165Z,50.67
2019-02-19T08:59:34.935Z,49.73
2019-02-19T09:02:06.474Z,45.53
2019-02-19T09:04:38.601Z,42.63
2019-02-19T09:07:10.313Z,44.87
2019-02-19T09:09:43.705Z,43.37
2019-02-19T09:12:15.243Z,47.10
2019-02-19T09:14:46.846Z,42.73
2019-02-19T09:17:18.374Z,47.83
2019-02-19T09:19:49.898Z,46.27
2019-02-19T09:22:21.814Z,47.67
2019-02-19T09:24:53.353Z,39.87
2019-02-19T09:27:24.908Z,39.13
2019-02-19T09:29:56.557Z,39.83
2019-02-19T09:32:28.114Z,36.83
2019-02-19T09:34:59.640Z,37.73
2019-02-19T09:37:31.449Z,40.80
2019-02-19T09:40:03.673Z,37.33
2019-02-19T09:42:35.355Z,35.03
2019-02-19T09:45:10.152Z,38.80
2019-02-19T09:47:41.738Z,40.90
2019-02-19T09:50:13.735Z,38.37
2019-02-19T09:52:45.507Z,32.80
2019-02-19T09:55:17.084Z,38.37
2019-02-19T09:57:48.744Z,36.00
2019-02-19T10:00:20.314Z,41.93
2019-02-19T10:02:52.382Z,38.43
2019-02-19T10:05:23.915Z,37.57
2019-02-19T10:07:55.961Z,30.27
2019-02-19T10:10:27.646Z,36.67
2019-02-19T10:12:59.189Z,32.13
2019-02-19T10:15:30.799Z,34.03
2019-02-19T10:18:09.917Z,31.80
2019-02-19T10:20:35.661Z,33.97
2019-02-19T10:23:07.491Z,26.63
2019-02-19T10:25:39.099Z,29.80
2019-02-19T10:28:10.661Z,28.95
2019-02-19T10:30:42.199Z,33.47
2019-02-19T10:33:13.803Z,27.02
2019-02-19T10:35:45.344Z,33.27
2019-02-19T10:38:17.304Z,30.53
2019-02-19T10:40:48.987Z,30.07
2019-02-19T10:43:20.539Z,30.15
2019-02-19T10:45:52.055Z,29.55
2019-02-19T10:48:23.668Z,31.87
2019-02-19T10:50:55.305Z,34.27
2019-02-19T10:53:27.048Z,31.62
2019-02-19T10:55:58.607Z,30.20
2019-02-19T10:58:30.154Z,33.10
2019-02-19T11:01:01.693Z,32.05
2019-02-19T11:03:33.875Z,28.77
2019-02-19T11:06:05.415Z,29.15
2019-02-19T11:08:37.217Z,33.88
2019-02-19T11:11:08.785Z,23.77
2019-02-19T11:13:40.324Z,25.07
2019-02-19T11:16:11.887Z,24.63
2019-02-19T11:18:43.900Z,26.30
2019-02-19T11:21:19.525Z,32.55
2019-02-19T11:23:49.218Z,26.93
2019-02-19T11:26:20.798Z,24.52
2019-02-19T11:28:52.312Z,26.15
2019-02-19T11:31:23.836Z,27.17
2019-02-19T11:33:55.561Z,24.30
2019-02-19T11:36:27.101Z,29.05
2019-02-19T11:38:58.651Z,26.25
2019-02-19T11:41:30.386Z,26.48
2019-02-19T11:44:02.701Z,25.35
2019-02-19T11:46:34.405Z,23.75
2019-02-19T11:49:06.016Z,28.55
2019-02-19T11:51:37.717Z,27.00
2019-02-19T11:54:09.527Z,25.23
2019-02-19T11:56:41.046Z,23.32
2019-02-19T11:59:12.582Z,27.82
2019-02-19T12:01:44.650Z,33.13
2019-02-19T12:04:16.248Z,20.60
2019-02-19T12:06:47.939Z,23.95
2019-02-19T12:09:19.487Z,22.02
2019-02-19T12:11:50.990Z,28.17
2019-02-19T12:14:22.975Z,21.70
2019-02-19T12:16:54.625Z,24.27
2019-02-19T12:19:26.165Z,33.95
2019-02-19T12:21:57.696Z,23.95
2019-02-19T12:24:29.374Z,23.25
2019-02-19T12:27:00.918Z,28.30
2019-02-19T12:29:33.041Z,34.50
2019-02-19T12:32:04.627Z,28.70
2019-02-19T12:34:36.137Z,25.90
2019-02-19T12:37:07.669Z,25.80
2019-02-19T12:39:39.283Z,30.90
2019-02-19T12:42:10.910Z,36.50
2019-02-19T12:44:42.973Z,27.80
2019-02-19T12:47:14.601Z,26.35
2019-02-19T12:49:46.194Z,26.25
2019-02-19T12:52:17.851Z,29.60
2019-02-19T12:54:49.386Z,25.12
2019-02-19T12:57:21.063Z,28.87
2019-02-19T12:59:56.564Z,32.98
2019-02-19T13:02:27.061Z,30.43
2019-02-19T13:04:58.656Z,29.07
2019-02-19T13:07:30.266Z,30.45
2019-02-19T13:10:01.809Z,33.02
2019-02-19T13:12:33.402Z,29.40
2019-02-19T13:15:07.458Z,32.08
2019-02-19T13:17:39.071Z,33.55
2019-02-19T13:20:14.051Z,30.92
2019-02-19T13:22:45.701Z,37.00
2019-02-19T13:25:17.395Z,27.40
2019-02-19T13:27:49.017Z,39.10
2019-02-19T13:30:22.246Z,42.75
2019-02-19T13:32:53.776Z,40.55
2019-02-19T13:35:25.363Z,30.75
2019-02-19T13:37:56.928Z,39.65
2019-02-19T13:40:28.470Z,41.08
2019-02-19T13:43:00.087Z,46.63
2019-02-19T13:45:31.661Z,45.52
2019-02-19T13:48:05.814Z,36.40
2019-02-19T13:50:36.489Z,39.95
2019-02-19T13:53:08.333Z,49.85
2019-02-19T13:55:44.630Z,41.50
2019-02-19T13:58:16.205Z,44.18
2019-02-19T14:00:51.221Z,36.10
2019-02-19T14:03:22.819Z,38.23
2019-02-19T14:05:55.009Z,37.78
2019-02-19T14:08:26.584Z,48.83
2019-02-19T14:10:58.219Z,45.23
2019-02-19T14:13:29.731Z,57.00
2019-02-19T14:16:05.942Z,41.30
2019-02-19T14:18:55.508Z,44.38
2019-02-19T14:21:45.130Z,40.15
2019-02-19T14:24:27.566Z,33.10
2019-02-19T14:26:58.875Z,40.00
2019-02-19T14:29:38.114Z,32.70
2019-02-19T14:32:18.311Z,34.03
2019-02-19T14:34:57.062Z,34.40
2019-02-19T14:37:34.152Z,34.48
2019-02-19T14:40:25.934Z,36.75
2019-02-19T14:42:59.556Z,31.10
2019-02-19T14:45:32.741Z,31.60
2019-02-19T14:48:06.861Z,27.93
2019-02-19T14:50:49.681Z,30.50
2019-02-19T14:53:37.974Z,25.60
2019-02-19T14:56:11.211Z,33.42
2019-02-19T14:58:48.807Z,34.03
2019-02-19T15:01:22.874Z,21.07
2019-02-19T15:04:11.320Z,29.27
2019-02-19T15:06:56.873Z,29.45
2019-02-19T15:09:30.057Z,28.52
2019-02-19T15:12:03.386Z,34.65
2019-02-19T15:14:39.622Z,34.40
2019-02-19T15:17:24.833Z,24.50
2019-02-19T15:20:14.330Z,33.13
2019-02-19T15:22:56.323Z,26.23
2019-02-19T15:25:41.695Z,24.32
2019-02-19T15:28:14.900Z,43.37
2019-02-19T15:30:48.931Z,34.78
2019-02-19T15:33:32.499Z,34.05
2019-02-19T15:36:11.778Z,30.97
2019-02-19T15:38:48.078Z,30.83
2019-02-19T15:41:33.704Z,39.33
2019-02-19T15:44:06.878Z,31.33
2019-02-19T15:46:40.626Z,34.87
2019-02-19T15:49:30.097Z,30.10
2019-02-19T15:52:06.572Z,32.78
2019-02-19T15:54:58.279Z,33.80
2019-02-19T15:57:37.630Z,29.20
2019-02-19T16:00:27.820Z,32.80
2019-02-19T16:03:04.327Z,35.20
2019-02-19T16:05:44.899Z,37.63
2019-02-19T16:08:30.088Z,36.55
2019-02-19T16:11:09.967Z,38.48
2019-02-19T16:14:00.068Z,29.03
2019-02-19T16:16:48.304Z,37.10
2019-02-19T16:19:28.409Z,31.10
2019-02-19T16:22:02.908Z,43.33
2019-02-19T16:24:45.581Z,33.03
2019-02-19T16:27:32.044Z,31.05
2019-02-19T16:30:11.672Z,32.03
2019-02-19T16:32:51.017Z,41.03
2019-02-19T16:35:25.515Z,35.13
2019-02-19T16:37:56.834Z,29.55
2019-02-19T16:40:31.203Z,42.93
2019-02-19T16:43:02.745Z,40.50
2019-02-19T16:45:38.819Z,29.63
2019-02-19T16:48:28.417Z,29.40
2019-02-19T16:51:16.462Z,43.53
2019-02-19T16:54:25.486Z,35.57
2019-02-19T16:57:15.455Z,38.73
2019-02-19T17:00:29.983Z,37.05
2019-02-19T17:03:20.062Z,38.03
2019-02-19T17:09:11.103Z,41.33
2019-02-19T17:12:00.161Z,38.93
2019-02-19T17:14:36.436Z,37.30
2019-02-19T17:17:09.724Z,33.67
2019-02-19T17:19:52.241Z,43.60
2019-02-19T17:22:38.147Z,34.23
2019-02-19T17:25:14.162Z,45.17
2019-02-19T17:28:03.410Z,37.40
2019-02-19T17:30:36.604Z,34.10
2019-02-19T17:33:10.553Z,41.33
2019-02-19T17:36:00.836Z,38.97
2019-02-19T17:38:43.183Z,47.43
2019-02-19T17:41:25.202Z,43.83
2019-02-19T17:44:13.476Z,42.63
2019-02-19T17:47:04.889Z,42.37
2019-02-19T17:49:44.030Z,30.60
2019-02-19T17:52:19.743Z,37.87
2019-02-19T17:54:55.633Z,30.67
2019-02-19T17:57:30.081Z,32.23
2019-02-19T18:00:03.330Z,37.83
2019-02-19T18:02:42.551Z,30.60
2019-02-19T18:05:15.837Z,48.90
2019-02-19T18:07:52.841Z,36.60
2019-02-19T18:10:28.717Z,38.00
2019-02-19T18:13:14.301Z,43.50
2019-02-19T18:15:54.515Z,35.57
2019-02-19T18:18:44.606Z,39.27
2019-02-19T18:21:16.197Z,36.60
2019-02-19T18:23:47.879Z,43.70
2019-02-19T18:26:19.387Z,37.40
2019-02-19T18:28:50.960Z,35.50
2019-02-19T18:31:22.590Z,36.30
2019-02-19T18:33:54.646Z,42.83
2019-02-19T18:36:26.181Z,36.13
2019-02-19T18:38:57.762Z,41.77
2019-02-19T18:41:29.316Z,30.95
2019-02-19T18:44:00.909Z,40.63
2019-02-19T18:46:32.438Z,35.07
2019-02-19T18:49:04.562Z,33.50
2019-02-19T18:51:36.173Z,37.83
2019-02-19T18:54:07.819Z,39.27
2019-02-19T18:56:40.634Z,29.90
2019-02-19T18:59:12.221Z,32.70
2019-02-19T19:01:43.834Z,43.50
2019-02-19T19:04:15.860Z,35.90
2019-02-19T19:06:47.722Z,31.27
2019-02-19T19:09:19.265Z,35.67
2019-02-19T19:11:50.890Z,40.23
2019-02-19T19:14:22.565Z,32.10
2019-02-19T19:16:54.550Z,37.77
2019-02-19T19:19:26.626Z,33.77
2019-02-19T19:21:58.259Z,33.13
2019-02-19T19:24:29.907Z,38.57
2019-02-19T19:27:01.542Z,26.37
2019-02-19T19:29:33.220Z,26.77
2019-02-19T19:32:04.910Z,32.43
2019-02-19T19:34:37.036Z,26.47
2019-02-19T19:37:08.738Z,27.83
2019-02-19T19:39:40.519Z,25.67
2019-02-19T19:42:12.067Z,33.77
2019-02-19T19:44:43.617Z,28.07
2019-02-19T19:47:15.133Z,29.30
2019-02-19T19:49:46.674Z,33.17
2019-02-19T19:52:18.230Z,33.77
2019-02-19T19:54:50.876Z,25.67
2019-02-19T19:57:22.388Z,27.07
2019-02-19T19:59:53.975Z,32.97
2019-02-19T20:02:25.493Z,31.43
2019-02-19T20:04:57.280Z,30.83
2019-02-19T20:07:28.794Z,36.60
2019-02-19T20:10:01.297Z,32.07
2019-02-19T20:12:34.530Z,33.23
2019-02-19T20:15:12.063Z,28.60
2019-02-19T20:17:43.708Z,20.63
2019-02-19T20:20:15.254Z,35.60
2019-02-19T20:22:46.845Z,28.00
2019-02-19T20:25:18.493Z,21.07
2019-02-19T20:27:50.124Z,31.67
2019-02-19T20:30:21.651Z,31.57
2019-02-19T20:32:53.293Z,30.03
2019-02-19T20:35:24.897Z,32.80
2019-02-19T20:37:56.506Z,25.20
2019-02-19T20:40:28.160Z,24.50
2019-02-19T20:42:59.665Z,29.53
2019-02-19T20:45:31.393Z,27.20
2019-02-19T20:48:03.049Z,34.23
2019-02-19T20:50:35.774Z,25.37
2019-02-19T20:53:07.318Z,32.03
2019-02-19T20:55:39.758Z,26.23
2019-02-19T20:58:11.645Z,26.57
2019-02-19T21:00:43.289Z,28.20
2019-02-19T21:03:15.018Z,28.80
2019-02-19T21:05:46.587Z,32.10
2019-02-19T21:08:18.255Z,26.40
2019-02-19T21:10:49.989Z,27.30
2019-02-19T21:13:21.756Z,26.77
2019-02-19T21:15:53.366Z,34.03
2019-02-19T21:18:25.046Z,28.30
2019-02-19T21:20:57.185Z,21.17
2019-02-19T21:23:28.884Z,33.20
2019-02-19T21:26:00.681Z,23.23
2019-02-19T21:28:32.279Z,25.87
2019-02-19T21:31:03.978Z,32.60
2019-02-19T21:33:35.662Z,27.43
2019-02-19T21:36:07.306Z,29.30
2019-02-19T21:38:38.972Z,24.00
2019-02-19T21:41:10.508Z,34.37
2019-02-19T21:43:42.206Z,32.13
2019-02-19T21:46:13.914Z,28.93
2019-02-19T21:48:48.189Z,27.20
2019-02-19T21:51:19.370Z,28.17
2019-02-19T21:53:50.996Z,26.43
2019-02-19T21:56:22.709Z,26.87
2019-02-19T21:58:54.631Z,28.83
2019-02-19T22:01:26.345Z,25.27
2019-02-19T22:03:59.286Z,19.13
2019-02-19T22:06:31.426Z,19.00
2019-02-19T22:09:03.229Z,16.97
2019-02-19T22:11:36.455Z,18.40
2019-02-19T22:14:09.078Z,16.07
2019-02-19T22:16:40.615Z,16.50
2019-02-19T22:19:12.217Z,19.30
2019-02-19T22:21:51.687Z,18.60
2019-02-19T22:24:35.842Z,15.97
2019-02-19T22:27:07.451Z,18.33
2019-02-19T22:29:39.272Z,18.63
2019-02-19T22:32:11.910Z,20.20
2019-02-19T22:34:43.462Z,25.37
2019-02-19T22:37:15.438Z,19.63
2019-02-19T22:39:47.458Z,22.50
2019-02-19T22:42:19.142Z,22.47
2019-02-19T22:44:50.732Z,19.47
2019-02-19T22:47:22.354Z,18.60
2019-02-19T22:49:53.891Z,19.63
2019-02-19T22:52:25.903Z,16.77
2019-02-19T22:55:10.999Z,16.63
2019-02-19T22:57:42.682Z,16.93
2019-02-19T23:00:45.885Z,13.43
2019-02-19T23:03:19.616Z,12.43
2019-02-19T23:05:52.266Z,16.47
2019-02-19T23:08:23.949Z,12.63
2019-02-19T23:10:55.552Z,10.13
2019-02-19T23:13:27.068Z,10.10
2019-02-19T23:15:58.705Z,11.63
2019-02-19T23:18:30.387Z,11.60
2019-02-19T23:21:01.930Z,9.73
2019-02-19T23:23:33.516Z,9.83
2019-02-19T23:26:05.181Z,13.67
2019-02-19T23:28:36.824Z,10.97
2019-02-19T23:31:08.505Z,10.97
2019-02-19T23:33:40.034Z,10.77
2019-02-19T23:36:13.342Z,8.37
2019-02-19T23:38:44.943Z,8.00
2019-02-19T23:41:16.444Z,8.83
2019-02-19T23:43:48.499Z,7.40
2019-02-19T23:46:20.074Z,10.80
2019-02-19T23:48:51.669Z,9.53
2019-02-19T23:51:23.268Z,9.10
2019-02-19T23:53:54.937Z,8.00
2019-02-19T23:56:26.543Z,6.43
2019-02-19T23:58:58.585Z,9.40
